createdAt,value
2018-11-10T00:00:48.552Z,10.20
2018-11-10T00:01:48.610Z,10.20
2018-11-10T00:02:48.666Z,10.17
2018-11-10T00:03:48.725Z,10.16
2018-11-10T00:04:48.787Z,10.07
2018-11-10T00:05:48.842Z,10.20
2018-11-10T00:06:48.898Z,10.10
2018-11-10T00:07:48.988Z,10.24
2018-11-10T00:08:49.016Z,10.13
2018-11-10T00:09:49.074Z,10.22
2018-11-10T00:10:49.134Z,10.24
2018-11-10T00:11:49.189Z,10.24
2018-11-10T00:12:49.246Z,10.25
2018-11-10T00:13:49.304Z,10.18
2018-11-10T00:14:49.362Z,10.20
2018-11-10T00:15:49.420Z,10.25
2018-11-10T00:16:49.478Z,10.18
2018-11-10T00:17:49.536Z,10.16
2018-11-10T00:18:49.595Z,10.20
2018-11-10T00:19:49.653Z,10.16
2018-11-10T00:20:49.715Z,10.29
2018-11-10T00:21:49.767Z,10.31
2018-11-10T00:22:49.824Z,10.34
2018-11-10T00:23:49.884Z,10.31
2018-11-10T00:24:49.942Z,10.36
2018-11-10T00:25:50.001Z,10.24
2018-11-10T00:26:50.057Z,10.28
2018-11-10T00:27:50.125Z,10.22
2018-11-10T00:28:50.174Z,10.16
2018-11-10T00:29:50.233Z,10.22
2018-11-10T00:30:50.292Z,10.16
2018-11-10T00:31:50.350Z,10.35
2018-11-10T00:32:50.407Z,10.22
2018-11-10T00:33:50.464Z,10.35
2018-11-10T00:34:50.594Z,10.31
2018-11-10T00:35:50.580Z,10.17
2018-11-10T00:36:50.638Z,10.28
2018-11-10T00:37:50.700Z,10.24
2018-11-10T00:38:50.754Z,10.35
2018-11-10T00:39:50.814Z,10.34
2018-11-10T00:40:50.871Z,10.31
2018-11-10T00:41:50.930Z,10.36
2018-11-10T00:42:50.988Z,10.36
2018-11-10T00:43:51.045Z,10.36
2018-11-10T00:44:51.104Z,10.24
2018-11-10T00:45:51.162Z,10.29
2018-11-10T00:46:51.223Z,10.32
2018-11-10T00:47:51.277Z,10.29
2018-11-10T00:48:51.337Z,10.32
2018-11-10T00:49:51.395Z,10.46
2018-11-10T00:50:51.452Z,10.31
2018-11-10T00:51:51.516Z,10.32
2018-11-10T00:52:51.571Z,10.36
2018-11-10T00:53:51.627Z,10.32
2018-11-10T00:54:51.684Z,10.35
2018-11-10T00:55:51.744Z,10.29
2018-11-10T00:56:51.801Z,10.26
2018-11-10T00:57:51.858Z,10.26
2018-11-10T00:58:51.917Z,10.28
2018-11-10T00:59:51.975Z,10.17
2018-11-10T01:00:52.034Z,10.07
2018-11-10T01:01:52.093Z,10.07
2018-11-10T01:02:52.149Z,10.06
2018-11-10T01:03:52.208Z,10.06
2018-11-10T01:04:52.266Z,10.11
2018-11-10T01:05:52.324Z,10.14
2018-11-10T01:06:52.381Z,10.20
2018-11-10T01:07:52.438Z,10.09
2018-11-10T01:08:52.498Z,9.99
2018-11-10T01:09:52.556Z,9.95
2018-11-10T01:10:52.614Z,10.01
2018-11-10T01:11:52.673Z,9.95
2018-11-10T01:12:52.730Z,9.93
2018-11-10T01:13:52.793Z,9.96
2018-11-10T01:14:52.862Z,9.96
2018-11-10T01:15:52.904Z,9.98
2018-11-10T01:16:52.961Z,9.99
2018-11-10T01:17:53.020Z,10.07
2018-11-10T01:18:53.076Z,10.06
2018-11-10T01:19:53.134Z,10.06
2018-11-10T01:20:53.192Z,10.14
2018-11-10T01:21:53.255Z,10.06
2018-11-10T01:22:53.367Z,10.09
2018-11-10T01:23:53.366Z,10.06
2018-11-10T01:24:53.441Z,10.07
2018-11-10T01:25:53.481Z,10.09
2018-11-10T01:26:53.539Z,10.14
2018-11-10T01:27:53.702Z,10.14
2018-11-10T01:28:53.654Z,10.13
2018-11-10T01:29:53.712Z,10.20
2018-11-10T01:30:53.770Z,10.13
2018-11-10T01:31:53.828Z,10.06
2018-11-10T01:32:53.886Z,10.20
2018-11-10T01:33:53.945Z,10.18
2018-11-10T01:34:54.001Z,10.16
2018-11-10T01:35:54.059Z,10.18
2018-11-10T01:36:54.118Z,10.18
2018-11-10T01:37:54.187Z,10.20
2018-11-10T01:38:54.232Z,10.22
2018-11-10T01:39:54.291Z,10.28
2018-11-10T01:40:54.369Z,10.29
2018-11-10T01:41:54.408Z,10.28
2018-11-10T01:42:54.464Z,10.35
2018-11-10T01:43:54.522Z,10.34
2018-11-10T01:44:54.580Z,10.31
2018-11-10T01:45:54.638Z,10.38
2018-11-10T01:46:54.696Z,10.36
2018-11-10T01:47:54.753Z,10.39
2018-11-10T01:48:54.812Z,10.28
2018-11-10T01:49:54.870Z,10.26
2018-11-10T01:50:54.927Z,10.29
2018-11-10T01:51:54.985Z,10.17
2018-11-10T01:52:55.044Z,10.17
2018-11-10T01:53:55.102Z,10.20
2018-11-10T01:54:55.159Z,10.28
2018-11-10T01:55:55.228Z,10.31
2018-11-10T01:56:55.276Z,10.35
2018-11-10T01:57:55.333Z,10.26
2018-11-10T01:58:55.391Z,10.16
2018-11-10T01:59:55.448Z,10.24
2018-11-10T02:00:55.509Z,10.17
2018-11-10T02:01:55.565Z,10.22
2018-11-10T02:02:55.624Z,10.18
2018-11-10T02:03:55.704Z,10.22
2018-11-10T02:04:55.738Z,10.20
2018-11-10T02:05:55.797Z,10.16
2018-11-10T02:06:55.854Z,10.17
2018-11-10T02:07:55.912Z,10.32
2018-11-10T02:08:55.974Z,10.31
2018-11-10T02:09:56.029Z,10.28
2018-11-10T02:10:56.087Z,10.26
2018-11-10T02:11:56.143Z,10.32
2018-11-10T02:12:56.203Z,10.29
2018-11-10T02:13:56.261Z,10.31
2018-11-10T02:14:56.318Z,10.16
2018-11-10T02:15:56.375Z,10.20
2018-11-10T02:16:56.433Z,10.18
2018-11-10T02:17:56.493Z,10.17
2018-11-10T02:18:56.549Z,10.35
2018-11-10T02:19:56.608Z,10.29
2018-11-10T02:20:56.665Z,10.36
2018-11-10T02:21:56.723Z,10.25
2018-11-10T02:22:56.781Z,10.22
2018-11-10T02:23:56.839Z,10.28
2018-11-10T02:24:56.897Z,10.26
2018-11-10T02:25:56.956Z,10.31
2018-11-10T02:26:57.012Z,10.31
2018-11-10T02:27:57.071Z,10.25
2018-11-10T02:28:57.130Z,10.24
2018-11-10T02:29:57.188Z,10.22
2018-11-10T02:30:57.245Z,10.28
2018-11-10T02:31:57.312Z,10.22
2018-11-10T02:32:57.362Z,10.35
2018-11-10T02:33:57.419Z,10.28
2018-11-10T02:34:57.477Z,10.22
2018-11-10T02:35:57.536Z,10.26
2018-11-10T02:36:57.594Z,10.36
2018-11-10T02:37:57.652Z,10.35
2018-11-10T02:38:57.710Z,10.32
2018-11-10T02:39:57.786Z,10.32
2018-11-10T02:40:57.827Z,10.36
2018-11-10T02:41:57.884Z,10.39
2018-11-10T02:42:57.941Z,10.20
2018-11-10T02:43:57.999Z,10.18
2018-11-10T02:44:58.058Z,10.25
2018-11-10T02:45:58.117Z,10.29
2018-11-10T02:46:58.173Z,10.24
2018-11-10T02:47:58.231Z,10.25
2018-11-10T02:48:58.294Z,10.26
2018-11-10T02:49:58.348Z,10.22
2018-11-10T02:50:58.406Z,10.18
2018-11-10T02:51:58.464Z,10.18
2018-11-10T02:52:58.521Z,10.20
2018-11-10T02:53:58.580Z,10.29
2018-11-10T02:54:58.637Z,10.36
2018-11-10T02:55:58.695Z,10.31
2018-11-10T02:56:58.754Z,10.31
2018-11-10T02:57:58.966Z,10.29
2018-11-10T02:58:58.869Z,10.32
2018-11-10T02:59:58.929Z,10.34
2018-11-10T03:00:58.986Z,10.34
2018-11-10T03:01:59.044Z,10.31
2018-11-10T03:02:59.101Z,10.36
2018-11-10T03:03:59.193Z,10.36
2018-11-10T03:04:59.217Z,10.32
2018-11-10T03:05:59.277Z,10.20
2018-11-10T03:06:59.333Z,10.31
2018-11-10T03:07:59.394Z,10.38
2018-11-10T03:08:59.450Z,10.36
2018-11-10T03:09:59.507Z,10.29
2018-11-10T03:10:59.565Z,10.20
2018-11-10T03:11:59.622Z,10.26
2018-11-10T03:12:59.683Z,10.24
2018-11-10T03:13:59.740Z,10.28
2018-11-10T03:14:59.797Z,10.25
2018-11-10T03:15:59.855Z,10.26
2018-11-10T03:16:59.914Z,10.26
2018-11-10T03:17:59.972Z,10.28
2018-11-10T03:19:00.030Z,10.31
2018-11-10T03:20:00.088Z,10.17
2018-11-10T03:21:00.147Z,10.07
2018-11-10T03:22:00.204Z,10.14
2018-11-10T03:23:00.262Z,10.14
2018-11-10T03:24:00.320Z,10.16
2018-11-10T03:25:00.380Z,10.16
2018-11-10T03:26:00.438Z,10.09
2018-11-10T03:27:00.493Z,10.10
2018-11-10T03:28:00.553Z,10.18
2018-11-10T03:29:00.609Z,10.20
2018-11-10T03:30:00.668Z,10.26
2018-11-10T03:31:00.726Z,10.18
2018-11-10T03:32:00.785Z,10.20
2018-11-10T03:33:00.876Z,10.28
2018-11-10T03:34:00.900Z,10.28
2018-11-10T03:35:00.958Z,10.32
2018-11-10T03:36:01.014Z,10.20
2018-11-10T03:37:01.072Z,10.22
2018-11-10T03:38:01.133Z,10.11
2018-11-10T03:39:01.188Z,10.16
2018-11-10T03:40:01.248Z,10.16
2018-11-10T03:41:01.305Z,10.17
2018-11-10T03:42:01.365Z,10.20
2018-11-10T03:43:01.422Z,10.20
2018-11-10T03:44:01.478Z,10.16
2018-11-10T03:45:01.537Z,10.32
2018-11-10T03:46:01.595Z,10.18
2018-11-10T03:47:01.652Z,10.20
2018-11-10T03:48:01.709Z,10.17
2018-11-10T03:49:01.769Z,10.26
2018-11-10T03:50:01.826Z,10.16
2018-11-10T03:51:01.884Z,10.20
2018-11-10T03:52:01.941Z,10.18
2018-11-10T03:53:02.008Z,10.26
2018-11-10T03:54:02.209Z,10.32
2018-11-10T03:55:02.140Z,10.36
2018-11-10T03:56:02.173Z,10.38
2018-11-10T03:57:02.231Z,10.47
2018-11-10T03:58:02.291Z,10.51
2018-11-10T03:59:02.398Z,10.46
2018-11-10T04:00:02.410Z,10.38
2018-11-10T04:01:02.462Z,10.38
2018-11-10T04:02:02.522Z,10.31
2018-11-10T04:03:02.579Z,10.39
2018-11-10T04:04:02.636Z,10.26
2018-11-10T04:05:02.696Z,10.29
2018-11-10T04:06:02.754Z,10.43
2018-11-10T04:07:02.811Z,10.46
2018-11-10T04:08:02.868Z,10.51
2018-11-10T04:09:02.929Z,10.54
2018-11-10T04:10:02.987Z,10.44
2018-11-10T04:11:03.043Z,10.54
2018-11-10T04:12:03.101Z,10.58
2018-11-10T04:13:03.159Z,10.70
2018-11-10T04:14:03.467Z,10.65
2018-11-10T04:15:03.273Z,10.68
2018-11-10T04:16:03.333Z,10.72
2018-11-10T04:17:03.390Z,10.69
2018-11-10T04:18:03.449Z,10.63
2018-11-10T04:19:03.506Z,10.68
2018-11-10T04:20:03.567Z,10.63
2018-11-10T04:21:03.622Z,10.52
2018-11-10T04:22:03.680Z,10.52
2018-11-10T04:23:03.738Z,10.66
2018-11-10T04:24:03.796Z,10.57
2018-11-10T04:25:03.855Z,10.49
2018-11-10T04:26:03.912Z,10.68
2018-11-10T04:27:03.970Z,10.60
2018-11-10T04:28:04.029Z,10.76
2018-11-10T04:29:04.087Z,10.78
2018-11-10T04:30:04.146Z,10.76
2018-11-10T04:31:04.202Z,10.72
2018-11-10T04:32:04.261Z,10.72
2018-11-10T04:33:04.318Z,10.72
2018-11-10T04:34:04.379Z,10.73
2018-11-10T04:35:04.435Z,10.76
2018-11-10T04:36:04.494Z,10.75
2018-11-10T04:37:04.550Z,10.80
2018-11-10T04:38:04.611Z,10.73
2018-11-10T04:39:04.670Z,10.75
2018-11-10T04:40:04.726Z,10.80
2018-11-10T04:41:04.783Z,10.75
2018-11-10T04:42:04.841Z,10.86
2018-11-10T04:43:04.898Z,10.76
2018-11-10T04:44:04.960Z,10.81
2018-11-10T04:45:05.015Z,10.84
2018-11-10T04:46:05.073Z,10.81
2018-11-10T04:47:05.132Z,10.75
2018-11-10T04:48:05.189Z,10.84
2018-11-10T04:49:05.247Z,10.80
2018-11-10T04:50:05.306Z,10.86
2018-11-10T04:51:05.362Z,10.86
2018-11-10T04:52:05.436Z,10.81
2018-11-10T04:53:05.480Z,10.86
2018-11-10T04:54:05.538Z,10.88
2018-11-10T04:55:05.596Z,11.08
2018-11-10T04:56:05.661Z,10.95
2018-11-10T04:57:05.712Z,10.94
2018-11-10T04:58:05.778Z,10.95
2018-11-10T04:59:05.830Z,10.78
2018-11-10T05:00:05.889Z,10.78
2018-11-10T05:01:05.973Z,10.80
2018-11-10T05:02:06.005Z,10.91
2018-11-10T05:03:06.062Z,10.91
2018-11-10T05:04:06.122Z,10.80
2018-11-10T05:05:06.177Z,10.84
2018-11-10T05:06:06.241Z,10.86
2018-11-10T05:07:06.293Z,10.90
2018-11-10T05:08:06.356Z,10.86
2018-11-10T05:09:06.410Z,10.95
2018-11-10T05:10:06.468Z,11.01
2018-11-10T05:11:06.525Z,10.93
2018-11-10T05:12:06.584Z,10.84
2018-11-10T05:13:06.646Z,10.84
2018-11-10T05:14:06.706Z,10.86
2018-11-10T05:15:06.758Z,11.01
2018-11-10T05:16:06.817Z,10.93
2018-11-10T05:17:06.875Z,11.08
2018-11-10T05:18:06.933Z,10.98
2018-11-10T05:19:06.991Z,10.99
2018-11-10T05:20:07.302Z,10.86
2018-11-10T05:21:07.107Z,10.84
2018-11-10T05:22:07.167Z,10.70
2018-11-10T05:23:07.222Z,10.94
2018-11-10T05:24:07.281Z,11.13
2018-11-10T05:25:07.339Z,11.31
2018-11-10T05:26:07.398Z,11.42
2018-11-10T05:27:07.456Z,11.46
2018-11-10T05:28:07.514Z,11.64
2018-11-10T05:29:07.572Z,11.74
2018-11-10T05:30:07.664Z,11.60
2018-11-10T05:31:07.700Z,11.90
2018-11-10T05:32:07.746Z,11.97
2018-11-10T05:33:07.803Z,11.93
2018-11-10T05:34:07.864Z,11.82
2018-11-10T05:35:08.171Z,11.42
2018-11-10T05:36:07.977Z,11.31
2018-11-10T05:37:08.037Z,11.20
2018-11-10T05:38:08.096Z,10.95
2018-11-10T05:39:20.892Z,10.99
2018-11-10T05:40:08.211Z,11.09
2018-11-10T05:41:08.270Z,11.16
2018-11-10T05:42:08.328Z,11.27
2018-11-10T05:43:08.387Z,11.11
2018-11-10T05:44:08.444Z,10.93
2018-11-10T05:45:08.501Z,11.09
2018-11-10T05:46:08.559Z,11.16
2018-11-10T05:47:08.617Z,11.12
2018-11-10T05:48:08.675Z,11.01
2018-11-10T05:49:08.733Z,11.03
2018-11-10T05:50:08.792Z,11.05
2018-11-10T05:51:08.849Z,11.28
2018-11-10T05:52:08.906Z,11.63
2018-11-10T05:53:08.966Z,11.44
2018-11-10T05:54:09.023Z,11.17
2018-11-10T05:55:09.080Z,11.02
2018-11-10T05:56:09.138Z,11.05
2018-11-10T05:57:09.249Z,11.28
2018-11-10T05:58:09.256Z,11.54
2018-11-10T05:59:09.313Z,11.51
2018-11-10T06:00:09.371Z,11.35
2018-11-10T06:01:09.428Z,11.19
2018-11-10T06:02:09.487Z,11.27
2018-11-10T06:03:09.609Z,11.24
2018-11-10T06:04:09.602Z,11.11
2018-11-10T06:05:09.663Z,11.06
2018-11-10T06:06:09.718Z,10.98
2018-11-10T06:07:09.776Z,10.98
2018-11-10T06:08:09.836Z,11.20
2018-11-10T06:09:09.914Z,11.12
2018-11-10T06:10:10.140Z,11.27
2018-11-10T06:11:10.007Z,11.42
2018-11-10T06:12:10.065Z,11.62
2018-11-10T06:13:10.123Z,11.54
2018-11-10T06:14:10.182Z,11.51
2018-11-10T06:15:10.244Z,11.27
2018-11-10T06:16:10.393Z,11.12
2018-11-10T06:17:10.356Z,11.01
2018-11-10T06:18:10.412Z,10.86
2018-11-10T06:19:10.469Z,10.90
2018-11-10T06:20:10.527Z,10.91
2018-11-10T06:21:10.589Z,10.98
2018-11-10T06:22:10.646Z,10.99
2018-11-10T06:23:10.701Z,10.87
2018-11-10T06:24:10.761Z,10.87
2018-11-10T06:25:10.817Z,10.81
2018-11-10T06:26:10.929Z,10.80
2018-11-10T06:27:10.933Z,10.88
2018-11-10T06:28:10.991Z,10.90
2018-11-10T06:29:11.049Z,10.81
2018-11-10T06:30:11.107Z,10.93
2018-11-10T06:31:11.165Z,11.16
2018-11-10T06:32:11.222Z,11.33
2018-11-10T06:33:11.281Z,11.30
2018-11-10T06:34:11.338Z,11.13
2018-11-10T06:35:11.396Z,11.09
2018-11-10T06:36:11.457Z,11.02
2018-11-10T06:37:11.511Z,10.90
2018-11-10T06:38:11.572Z,10.86
2018-11-10T06:39:11.627Z,10.99
2018-11-10T06:40:11.685Z,11.16
2018-11-10T06:41:11.746Z,11.41
2018-11-10T06:42:11.803Z,11.56
2018-11-10T06:43:11.862Z,11.44
2018-11-10T06:44:11.917Z,11.08
2018-11-10T06:45:11.975Z,10.99
2018-11-10T06:46:12.034Z,10.98
2018-11-10T06:47:12.216Z,11.09
2018-11-10T06:48:12.150Z,11.06
2018-11-10T06:49:12.207Z,11.12
2018-11-10T06:50:12.279Z,11.16
2018-11-10T06:51:12.322Z,11.16
2018-11-10T06:52:12.381Z,11.27
2018-11-10T06:53:12.438Z,11.27
2018-11-10T06:54:12.500Z,11.28
2018-11-10T06:55:12.555Z,11.27
2018-11-10T06:56:12.612Z,11.30
2018-11-10T06:57:12.671Z,11.16
2018-11-10T06:58:12.728Z,11.21
2018-11-10T06:59:12.786Z,11.12
2018-11-10T07:00:12.869Z,11.19
2018-11-10T07:01:12.903Z,11.20
2018-11-10T07:02:12.962Z,11.17
2018-11-10T07:03:13.067Z,11.11
2018-11-10T07:04:13.075Z,11.11
2018-11-10T07:05:13.137Z,10.99
2018-11-10T07:06:13.193Z,11.08
2018-11-10T07:07:13.249Z,10.94
2018-11-10T07:08:13.308Z,11.03
2018-11-10T07:09:13.416Z,10.94
2018-11-10T07:10:13.427Z,11.01
2018-11-10T07:11:13.483Z,10.95
2018-11-10T07:12:13.540Z,11.08
2018-11-10T07:13:13.597Z,11.03
2018-11-10T07:14:13.656Z,11.05
2018-11-10T07:15:13.715Z,11.03
2018-11-10T07:16:14.023Z,11.17
2018-11-10T07:17:13.872Z,11.08
2018-11-10T07:18:14.045Z,11.19
2018-11-10T07:19:13.946Z,11.19
2018-11-10T07:20:14.005Z,11.23
2018-11-10T07:21:14.063Z,11.16
2018-11-10T07:22:14.123Z,11.13
2018-11-10T07:23:14.179Z,11.16
2018-11-10T07:24:14.240Z,11.13
2018-11-10T07:25:14.296Z,11.17
2018-11-10T07:26:14.355Z,11.13
2018-11-10T07:27:14.412Z,11.16
2018-11-10T07:28:14.470Z,11.16
2018-11-10T07:29:14.529Z,11.12
2018-11-10T07:30:14.587Z,11.16
2018-11-10T07:31:14.644Z,11.17
2018-11-10T07:32:14.703Z,11.13
2018-11-10T07:33:14.762Z,11.17
2018-11-10T07:34:14.821Z,11.24
2018-11-10T07:35:14.878Z,11.17
2018-11-10T07:36:14.936Z,11.24
2018-11-10T07:37:15.021Z,11.12
2018-11-10T07:38:15.053Z,11.20
2018-11-10T07:39:15.113Z,11.20
2018-11-10T07:40:15.170Z,11.31
2018-11-10T07:41:15.228Z,11.23
2018-11-10T07:42:15.287Z,11.28
2018-11-10T07:43:15.345Z,11.31
2018-11-10T07:44:15.406Z,11.26
2018-11-10T07:45:15.465Z,11.36
2018-11-10T07:46:15.520Z,11.39
2018-11-10T07:47:15.577Z,11.45
2018-11-10T07:48:15.639Z,11.51
2018-11-10T07:49:15.717Z,11.36
2018-11-10T07:50:15.754Z,11.39
2018-11-10T07:51:15.828Z,11.28
2018-11-10T07:52:15.871Z,11.44
2018-11-10T07:53:15.931Z,11.46
2018-11-10T07:54:15.988Z,11.51
2018-11-10T07:55:16.045Z,11.51
2018-11-10T07:56:16.106Z,11.56
2018-11-10T07:57:16.164Z,11.57
2018-11-10T07:58:16.222Z,11.60
2018-11-10T07:59:16.279Z,11.57
2018-11-10T08:00:16.340Z,11.60
2018-11-10T08:01:16.397Z,11.69
2018-11-10T08:02:16.457Z,11.64
2018-11-10T08:03:16.514Z,11.63
2018-11-10T08:04:16.624Z,11.64
2018-11-10T08:05:16.633Z,11.63
2018-11-10T08:06:16.690Z,11.69
2018-11-10T08:07:16.749Z,11.69
2018-11-10T08:08:16.808Z,11.77
2018-11-10T08:09:16.867Z,11.74
2018-11-10T08:10:16.926Z,11.78
2018-11-10T08:11:16.984Z,11.64
2018-11-10T08:12:17.044Z,11.63
2018-11-10T08:13:17.102Z,11.64
2018-11-10T08:14:17.161Z,11.72
2018-11-10T08:15:17.220Z,11.60
2018-11-10T08:16:17.278Z,11.75
2018-11-10T08:17:17.337Z,11.66
2018-11-10T08:18:17.429Z,11.66
2018-11-10T08:19:17.453Z,11.67
2018-11-10T08:20:17.514Z,11.74
2018-11-10T08:21:17.571Z,11.82
2018-11-10T08:22:17.630Z,11.77
2018-11-10T08:23:17.688Z,11.79
2018-11-10T08:24:17.748Z,11.77
2018-11-10T08:25:17.807Z,11.90
2018-11-10T08:26:17.865Z,11.93
2018-11-10T08:27:17.923Z,12.04
2018-11-10T08:28:17.982Z,12.01
2018-11-10T08:29:18.041Z,12.03
2018-11-10T08:30:18.100Z,11.85
2018-11-10T08:31:18.269Z,12.01
2018-11-10T08:32:18.217Z,12.03
2018-11-10T08:33:18.280Z,11.98
2018-11-10T08:34:18.336Z,12.11
2018-11-10T08:35:18.397Z,12.16
2018-11-10T08:36:18.452Z,12.07
2018-11-10T08:37:18.515Z,12.12
2018-11-10T08:38:18.574Z,12.25
2018-11-10T08:39:18.752Z,12.18
2018-11-10T08:40:18.688Z,12.18
2018-11-10T08:41:18.748Z,12.22
2018-11-10T08:42:18.807Z,12.22
2018-11-10T08:43:18.865Z,12.34
2018-11-10T08:44:18.924Z,12.18
2018-11-10T08:45:18.983Z,12.22
2018-11-10T08:46:19.043Z,12.22
2018-11-10T08:47:19.101Z,12.21
2018-11-10T08:48:19.161Z,12.22
2018-11-10T08:49:19.398Z,12.33
2018-11-10T08:50:19.280Z,12.36
2018-11-10T08:51:19.337Z,12.48
2018-11-10T08:52:19.399Z,12.40
2018-11-10T08:53:19.455Z,12.49
2018-11-10T08:54:19.541Z,12.43
2018-11-10T08:55:19.573Z,12.56
2018-11-10T08:56:19.885Z,12.54
2018-11-10T08:57:19.700Z,12.51
2018-11-10T08:58:19.752Z,12.52
2018-11-10T08:59:19.850Z,12.52
2018-11-10T09:00:19.870Z,12.41
2018-11-10T09:01:19.930Z,12.54
2018-11-10T09:02:19.989Z,12.54
2018-11-10T09:03:20.047Z,12.54
2018-11-10T09:04:20.107Z,12.54
2018-11-10T09:05:20.166Z,12.54
2018-11-10T09:06:20.226Z,12.61
2018-11-10T09:07:20.284Z,12.56
2018-11-10T09:08:20.344Z,12.51
2018-11-10T09:09:20.403Z,12.56
2018-11-10T09:10:20.463Z,12.54
2018-11-10T09:11:20.522Z,12.58
2018-11-10T09:12:20.581Z,12.61
2018-11-10T09:13:20.643Z,12.52
2018-11-10T09:14:20.700Z,12.63
2018-11-10T09:15:21.367Z,12.59
2018-11-10T09:16:20.818Z,12.59
2018-11-10T09:17:20.878Z,12.63
2018-11-10T09:18:20.937Z,12.56
2018-11-10T09:19:20.996Z,12.67
2018-11-10T09:20:21.057Z,12.73
2018-11-10T09:21:21.186Z,12.59
2018-11-10T09:22:21.173Z,12.62
2018-11-10T09:23:21.233Z,12.66
2018-11-10T09:24:21.293Z,12.66
2018-11-10T09:25:21.351Z,12.66
2018-11-10T09:26:21.413Z,12.74
2018-11-10T09:27:21.471Z,12.77
2018-11-10T09:28:21.529Z,12.59
2018-11-10T09:29:21.590Z,12.61
2018-11-10T09:30:21.649Z,12.61
2018-11-10T09:31:21.708Z,12.61
2018-11-10T09:32:21.766Z,12.62
2018-11-10T09:33:21.827Z,12.67
2018-11-10T09:34:21.892Z,12.69
2018-11-10T09:35:21.945Z,12.69
2018-11-10T09:36:22.019Z,12.70
2018-11-10T09:37:22.064Z,12.62
2018-11-10T09:38:22.123Z,12.66
2018-11-10T09:39:22.182Z,12.58
2018-11-10T09:40:22.242Z,12.62
2018-11-10T09:41:22.301Z,12.61
2018-11-10T09:42:22.484Z,12.51
2018-11-10T09:43:22.418Z,12.63
2018-11-10T09:44:22.478Z,12.59
2018-11-10T09:45:22.538Z,12.59
2018-11-10T09:46:22.597Z,12.70
2018-11-10T09:47:22.654Z,12.76
2018-11-10T09:48:22.714Z,12.71
2018-11-10T09:49:22.773Z,12.67
2018-11-10T09:50:22.833Z,12.62
2018-11-10T09:51:22.895Z,12.63
2018-11-10T09:52:22.994Z,12.73
2018-11-10T09:53:23.012Z,12.74
2018-11-10T09:54:23.070Z,12.77
2018-11-10T09:55:23.129Z,12.76
2018-11-10T09:56:23.188Z,12.69
2018-11-10T09:57:23.255Z,12.74
2018-11-10T09:58:23.307Z,12.87
2018-11-10T09:59:23.365Z,12.87
2018-11-10T10:00:23.431Z,12.92
2018-11-10T10:01:23.628Z,12.95
2018-11-10T10:02:23.940Z,12.94
2018-11-10T10:03:23.603Z,13.01
2018-11-10T10:04:23.662Z,12.99
2018-11-10T10:05:23.723Z,12.96
2018-11-10T10:06:23.782Z,12.95
2018-11-10T10:07:23.839Z,12.87
2018-11-10T10:08:23.917Z,12.98
2018-11-10T10:09:23.959Z,12.96
2018-11-10T10:10:24.020Z,12.94
2018-11-10T10:11:24.079Z,13.01
2018-11-10T10:12:24.138Z,13.07
2018-11-10T10:13:24.198Z,13.03
2018-11-10T10:14:24.257Z,13.12
2018-11-10T10:15:24.318Z,13.17
2018-11-10T10:16:24.442Z,13.04
2018-11-10T10:17:24.435Z,13.22
2018-11-10T10:18:24.495Z,13.12
2018-11-10T10:19:24.555Z,13.17
2018-11-10T10:20:24.616Z,13.04
2018-11-10T10:21:24.707Z,13.12
2018-11-10T10:22:24.733Z,13.13
2018-11-10T10:23:24.791Z,13.14
2018-11-10T10:24:24.861Z,13.29
2018-11-10T10:25:24.911Z,13.29
2018-11-10T10:26:24.976Z,13.24
2018-11-10T10:27:25.031Z,13.12
2018-11-10T10:28:25.116Z,13.14
2018-11-10T10:29:25.150Z,13.32
2018-11-10T10:30:25.211Z,13.28
2018-11-10T10:31:25.269Z,13.27
2018-11-10T10:32:25.331Z,13.38
2018-11-10T10:33:25.390Z,13.39
2018-11-10T10:34:25.489Z,13.24
2018-11-10T10:35:26.072Z,13.35
2018-11-10T10:36:25.570Z,13.48
2018-11-10T10:37:25.629Z,13.43
2018-11-10T10:38:25.688Z,13.36
2018-11-10T10:39:25.763Z,13.44
2018-11-10T10:40:25.808Z,13.53
2018-11-10T10:41:25.868Z,13.55
2018-11-10T10:42:25.931Z,13.61
2018-11-10T10:43:25.987Z,13.48
2018-11-10T10:44:26.047Z,13.54
2018-11-10T10:45:26.108Z,13.48
2018-11-10T10:46:26.167Z,13.54
2018-11-10T10:47:26.226Z,13.53
2018-11-10T10:48:26.348Z,13.44
2018-11-10T10:49:26.347Z,13.43
2018-11-10T10:50:26.407Z,13.47
2018-11-10T10:51:26.465Z,13.44
2018-11-10T10:52:26.527Z,13.44
2018-11-10T10:53:26.586Z,13.54
2018-11-10T10:54:26.647Z,13.51
2018-11-10T10:55:26.705Z,13.57
2018-11-10T10:56:26.792Z,13.54
2018-11-10T10:57:26.826Z,13.54
2018-11-10T10:58:26.886Z,13.62
2018-11-10T10:59:26.945Z,13.65
2018-11-10T11:00:27.006Z,13.68
2018-11-10T11:01:27.065Z,13.69
2018-11-10T11:02:27.125Z,13.68
2018-11-10T11:03:27.286Z,13.84
2018-11-10T11:04:27.246Z,13.87
2018-11-10T11:05:27.304Z,13.80
2018-11-10T11:06:27.365Z,13.81
2018-11-10T11:07:27.425Z,13.81
2018-11-10T11:08:27.485Z,13.79
2018-11-10T11:09:27.550Z,13.87
2018-11-10T11:10:27.605Z,14.05
2018-11-10T11:11:27.664Z,13.99
2018-11-10T11:12:27.724Z,14.12
2018-11-10T11:13:27.784Z,14.06
2018-11-10T11:14:28.153Z,14.02
2018-11-10T11:15:28.119Z,14.13
2018-11-10T11:16:27.964Z,14.01
2018-11-10T11:17:28.037Z,13.96
2018-11-10T11:18:28.089Z,14.06
2018-11-10T11:19:28.144Z,14.08
2018-11-10T11:20:28.207Z,14.08
2018-11-10T11:21:28.266Z,14.01
2018-11-10T11:22:28.326Z,14.16
2018-11-10T11:23:28.404Z,14.12
2018-11-10T11:24:28.446Z,14.17
2018-11-10T11:25:28.506Z,14.02
2018-11-10T11:26:28.567Z,13.99
2018-11-10T11:27:28.632Z,14.08
2018-11-10T11:28:28.687Z,14.19
2018-11-10T11:29:28.942Z,14.08
2018-11-10T11:30:28.810Z,14.11
2018-11-10T11:31:28.868Z,14.08
2018-11-10T11:32:28.929Z,14.23
2018-11-10T11:33:28.989Z,14.21
2018-11-10T11:34:29.051Z,14.26
2018-11-10T11:35:29.203Z,14.26
2018-11-10T11:36:29.171Z,14.35
2018-11-10T11:37:29.230Z,14.24
2018-11-10T11:38:29.290Z,14.35
2018-11-10T11:39:29.357Z,14.31
2018-11-10T11:40:29.412Z,14.42
2018-11-10T11:41:29.606Z,14.49
2018-11-10T11:42:29.533Z,14.48
2018-11-10T11:43:29.596Z,14.42
2018-11-10T11:44:29.653Z,14.44
2018-11-10T11:45:29.714Z,14.38
2018-11-10T11:46:29.775Z,14.34
2018-11-10T11:47:29.835Z,14.39
2018-11-10T11:48:29.895Z,14.41
2018-11-10T11:49:29.955Z,14.44
2018-11-10T11:50:30.018Z,14.41
2018-11-10T11:51:30.077Z,14.39
2018-11-10T11:52:30.137Z,14.23
2018-11-10T11:53:30.200Z,14.21
2018-11-10T11:54:30.258Z,14.27
2018-11-10T11:55:30.318Z,14.13
2018-11-10T11:56:30.381Z,14.26
2018-11-10T11:57:30.501Z,14.29
2018-11-10T11:58:30.501Z,14.21
2018-11-10T11:59:30.560Z,14.20
2018-11-10T12:00:30.620Z,14.09
2018-11-10T12:01:30.681Z,14.08
2018-11-10T12:02:30.741Z,14.12
2018-11-10T12:03:30.801Z,14.20
2018-11-10T12:04:30.908Z,14.19
2018-11-10T12:05:30.922Z,14.26
2018-11-10T12:06:30.991Z,14.21
2018-11-10T12:07:31.052Z,14.23
2018-11-10T12:08:31.103Z,14.36
2018-11-10T12:09:31.164Z,14.36
2018-11-10T12:10:31.225Z,14.39
2018-11-10T12:11:31.287Z,14.38
2018-11-10T12:12:31.345Z,14.27
2018-11-10T12:13:31.405Z,14.26
2018-11-10T12:14:31.463Z,14.36
2018-11-10T12:15:31.580Z,14.38
2018-11-10T12:16:31.631Z,14.30
2018-11-10T12:17:31.646Z,14.24
2018-11-10T12:18:31.707Z,14.23
2018-11-10T12:19:31.764Z,14.34
2018-11-10T12:20:31.829Z,14.20
2018-11-10T12:21:31.884Z,14.31
2018-11-10T12:22:31.947Z,14.39
2018-11-10T12:23:32.005Z,14.36
2018-11-10T12:24:32.066Z,14.38
2018-11-10T12:25:32.125Z,14.34
2018-11-10T12:26:32.239Z,14.39
2018-11-10T12:27:32.245Z,14.41
2018-11-10T12:28:32.309Z,14.46
2018-11-10T12:29:32.366Z,14.54
2018-11-10T12:30:32.426Z,14.48
2018-11-10T12:31:32.485Z,14.46
2018-11-10T12:32:32.546Z,14.46
2018-11-10T12:33:32.914Z,14.56
2018-11-10T12:34:32.666Z,14.49
2018-11-10T12:35:32.726Z,14.52
2018-11-10T12:36:32.786Z,14.56
2018-11-10T12:37:32.846Z,14.48
2018-11-10T12:38:32.925Z,14.52
2018-11-10T12:39:32.966Z,14.48
2018-11-10T12:40:33.031Z,14.54
2018-11-10T12:41:33.086Z,14.69
2018-11-10T12:42:33.147Z,14.60
2018-11-10T12:43:33.208Z,14.66
2018-11-10T12:44:33.266Z,14.64
2018-11-10T12:45:33.389Z,14.67
2018-11-10T12:46:33.387Z,14.66
2018-11-10T12:47:33.537Z,14.69
2018-11-10T12:48:33.506Z,14.67
2018-11-10T12:49:33.567Z,14.69
2018-11-10T12:50:33.627Z,14.72
2018-11-10T12:51:33.686Z,14.71
2018-11-10T12:52:33.745Z,14.66
2018-11-10T12:53:33.806Z,14.67